Time;durP1;ratioP1;P1;durP2;ratioP2;P2;SDS_P1;SDS_P2;PMS_P1;PMS_P2;Temp;Humidity;BMP_temperature;BMP_pressure;BME280_temperature;BME280_humidity;BME280_pressure;Samples;Min_cycle;Max_cycle;Signal;HPM_P1;HPM_P2
2022/03/28 00:02:22;;;;;;;16.02;7.05;;;;;;;8.77;60.39;95636.09;5072970;28;20222;-73
2022/03/28 00:04:49;;;;;;;15.75;6.72;;;;;;;8.77;59.87;95639.59;5059814;28;20199;-72
2022/03/28 00:07:16;;;;;;;11.18;5.80;;;;;;;8.77;59.92;95646.91;5084535;28;20221;-73
2022/03/28 00:09:43;;;;;;;16.23;6.85;;;;;;;8.50;60.54;95648.31;5070203;28;20227;-73
2022/03/28 00:12:11;;;;;;;13.27;6.43;;;;;;;8.31;61.53;95650.16;5084679;28;20587;-73
2022/03/28 00:14:38;;;;;;;14.85;6.30;;;;;;;8.18;61.75;95640.06;5081924;28;20660;-73
2022/03/28 00:17:06;;;;;;;12.60;7.13;;;;;;;8.08;62.22;95651.75;5069652;28;20224;-73
2022/03/28 00:19:33;;;;;;;15.05;7.60;;;;;;;7.94;62.49;95650.81;5062267;28;20247;-73
2022/03/28 00:22:00;;;;;;;12.98;6.75;;;;;;;7.90;62.30;95649.00;5084277;28;20222;-73
2022/03/28 00:24:27;;;;;;;15.60;8.50;;;;;;;7.87;60.57;95641.47;5082415;28;20315;-72
2022/03/28 00:26:55;;;;;;;25.33;9.65;;;;;;;7.73;60.93;95639.44;5077690;28;20210;-73
2022/03/28 00:29:22;;;;;;;21.77;9.23;;;;;;;7.59;60.64;95643.88;5079440;28;20226;-73
2022/03/28 00:31:49;;;;;;;18.67;9.07;;;;;;;7.49;60.38;95650.19;5084083;28;20301;-73
2022/03/28 00:34:21;;;;;;;21.10;9.07;;;;;;;7.33;60.00;95639.78;5082365;28;20281;-73
2022/03/28 00:36:50;;;;;;;24.85;9.48;;;;;;;7.20;59.67;95641.25;5077640;28;20199;-73
2022/03/28 00:39:19;;;;;;;20.50;9.32;;;;;;;7.06;59.87;95635.69;5078163;28;20203;-73
2022/03/28 00:41:46;;;;;;;18.00;9.07;;;;;;;6.99;59.88;95635.19;5064442;28;20268;-74
2022/03/28 00:44:13;;;;;;;20.10;8.80;;;;;;;6.91;60.41;95641.16;5077651;28;20564;-74
2022/03/28 00:46:40;;;;;;;23.80;10.18;;;;;;;6.94;60.83;95646.00;5064447;28;20234;-73
2022/03/28 00:49:07;;;;;;;23.92;9.43;;;;;;;6.96;60.90;95634.97;5076991;28;20223;-73
2022/03/28 00:51:37;;;;;;;19.00;9.73;;;;;;;6.92;61.17;95634.72;5064347;28;20234;-73
2022/03/28 00:54:05;;;;;;;25.02;9.77;;;;;;;6.91;61.43;95627.72;5077377;28;20230;-72
2022/03/28 00:56:32;;;;;;;21.13;9.07;;;;;;;6.90;62.87;95631.47;5083388;28;20206;-74
2022/03/28 00:58:59;;;;;;;21.98;10.55;;;;;;;6.90;63.35;95642.25;5087758;28;20202;-74
2022/03/28 01:01:26;;;;;;;31.08;9.38;;;;;;;6.93;63.98;95636.31;5081906;28;20728;-74
2022/03/28 01:03:53;;;;;;;21.95;8.73;;;;;;;6.77;63.79;95629.41;5080838;28;20203;-74
2022/03/28 01:06:20;;;;;;;22.05;9.75;;;;;;;6.79;63.26;95627.25;5087531;28;20207;-74
2022/03/28 01:08:49;;;;;;;19.27;9.48;;;;;;;6.63;64.43;95631.91;5084307;28;20587;-74
2022/03/28 01:11:17;;;;;;;23.88;8.90;;;;;;;6.62;65.26;95630.31;5054770;28;20257;-74
2022/03/28 01:13:44;;;;;;;23.05;9.13;;;;;;;6.59;64.50;95613.88;5084489;28;20705;-74
2022/03/28 01:16:12;;;;;;;20.88;10.25;;;;;;;6.58;65.41;95623.84;5084596;28;20537;-74
2022/03/28 01:18:47;;;;;;;18.35;8.52;;;;;;;6.58;65.06;95628.44;5081035;28;20224;-73
2022/03/28 01:21:16;;;;;;;18.52;8.80;;;;;;;6.49;65.10;95625.53;5082794;28;20244;-74
2022/03/28 01:23:43;;;;;;;16.83;8.52;;;;;;;6.42;64.39;95620.44;5060731;28;20257;-73
2022/03/28 01:26:12;;;;;;;22.00;9.80;;;;;;;6.34;64.41;95629.09;5062273;28;20203;-73
2022/03/28 01:28:39;;;;;;;18.27;8.45;;;;;;;6.33;65.65;95619.41;5065059;28;20209;-73
2022/03/28 01:31:07;;;;;;;16.63;9.02;;;;;;;6.42;66.45;95631.19;5081808;28;20239;-73
2022/03/28 01:33:35;;;;;;;24.45;11.43;;;;;;;6.39;65.62;95631.78;5087980;28;20223;-73
2022/03/28 01:36:02;;;;;;;16.38;8.80;;;;;;;6.49;64.74;95630.09;5086183;28;20309;-73
2022/03/28 01:38:30;;;;;;;20.05;9.05;;;;;;;6.51;64.33;95630.63;5080292;28;20198;-73
2022/03/28 01:40:57;;;;;;;17.75;8.10;;;;;;;6.43;64.85;95619.34;5081198;28;20212;-73
2022/03/28 01:43:24;;;;;;;16.55;8.45;;;;;;;6.58;63.90;95618.47;5087505;28;20519;-73
2022/03/28 01:45:51;;;;;;;18.63;8.82;;;;;;;6.51;64.63;95628.75;5086866;28;20206;-73
2022/03/28 01:48:18;;;;;;;15.85;8.48;;;;;;;6.41;65.90;95618.84;5081003;28;20599;-73
2022/03/28 01:50:45;;;;;;;24.95;9.55;;;;;;;6.41;66.42;95618.84;5079503;28;20725;-73
2022/03/28 01:53:12;;;;;;;18.83;8.40;;;;;;;6.39;66.21;95615.63;5059097;28;20222;-73
2022/03/28 01:55:40;;;;;;;22.33;9.55;;;;;;;6.33;66.48;95619.41;5086015;28;20251;-73
2022/03/28 01:58:08;;;;;;;16.67;7.63;;;;;;;6.24;66.65;95617.56;5066883;28;20255;-73
2022/03/28 02:00:35;;;;;;;17.80;8.30;;;;;;;6.17;66.88;95607.09;5077874;28;20709;-73
2022/03/28 02:03:03;;;;;;;15.50;7.38;;;;;;;6.01;67.58;95625.16;5069763;28;20248;-74
2022/03/28 02:05:29;;;;;;;21.20;8.52;;;;;;;5.93;68.13;95631.13;5085408;28;20202;-73
2022/03/28 02:07:56;;;;;;;25.25;9.05;;;;;;;5.96;67.75;95632.47;5072022;28;20230;-74
2022/03/28 02:10:23;;;;;;;16.95;8.02;;;;;;;5.96;68.03;95624.41;5073295;28;20230;-74
2022/03/28 02:12:53;;;;;;;16.42;7.75;;;;;;;6.06;67.44;95618.97;5083606;28;20226;-73
2022/03/28 02:15:21;;;;;;;19.77;8.02;;;;;;;6.10;67.06;95622.75;5058588;28;20210;-73
2022/03/28 02:17:48;;;;;;;18.27;7.75;;;;;;;6.01;67.61;95621.69;5082396;28;20245;-73
2022/03/28 02:20:15;;;;;;;19.25;9.18;;;;;;;5.99;68.80;95616.59;5078577;28;20285;-73
2022/03/28 02:22:44;;;;;;;16.77;7.65;;;;;;;5.84;69.05;95619.28;5082226;28;20273;-72
2022/03/28 02:25:13;;;;;;;21.77;9.35;;;;;;;5.99;70.54;95626.56;5075972;28;20198;-73
2022/03/28 02:27:40;;;;;;;24.65;10.35;;;;;;;5.99;69.48;95621.97;5081713;28;20206;-72
2022/03/28 02:30:11;;;;;;;15.48;7.82;;;;;;;5.93;69.00;95622.25;5085640;28;20222;-72
2022/03/28 02:32:38;;;;;;;17.50;8.05;;;;;;;5.97;68.65;95623.31;5083515;28;20225;-72
2022/03/28 02:35:08;;;;;;;16.63;7.88;;;;;;;5.92;68.35;95621.44;5068019;28;20227;-73
2022/03/28 02:37:35;;;;;;;16.63;8.13;;;;;;;5.87;67.78;95628.72;5064419;28;20269;-73
2022/03/28 02:40:02;;;;;;;19.83;7.20;;;;;;;5.75;68.89;95615.53;5085798;28;20604;-73
2022/03/28 02:42:29;;;;;;;19.77;8.20;;;;;;;5.71;69.41;95625.25;5084990;28;20213;-73
2022/03/28 02:44:56;;;;;;;13.82;8.00;;;;;;;5.65;69.05;95616.38;5078435;28;20738;-73
2022/03/28 02:47:25;;;;;;;17.10;7.72;;;;;;;5.78;68.16;95624.94;5079281;28;20212;-73
2022/03/28 02:49:52;;;;;;;17.15;8.07;;;;;;;5.77;68.39;95623.34;5029997;28;1578201;-73
2022/03/28 02:52:19;;;;;;;15.55;6.82;;;;;;;5.54;68.88;95619.34;5085292;28;20252;-74
2022/03/28 02:54:46;;;;;;;16.80;7.70;;;;;;;5.44;69.43;95620.19;5078644;28;20209;-74
2022/03/28 02:57:12;;;;;;;11.90;6.88;;;;;;;5.31;70.53;95634.16;5079703;28;20256;-74
2022/03/28 02:59:39;;;;;;;19.42;8.75;;;;;;;5.20;70.37;95632.53;5086374;28;20242;-73
2022/03/28 03:02:06;;;;;;;21.42;10.43;;;;;;;5.17;70.45;95641.16;5085765;28;20220;-73
2022/03/28 03:04:35;;;;;;;26.42;10.73;;;;;;;5.22;70.90;95643.81;5052244;28;20199;-73
2022/03/28 03:07:02;;;;;;;24.10;10.02;;;;;;;5.27;71.33;95641.13;5079238;28;20206;-74
2022/03/28 03:09:29;;;;;;;17.85;9.23;;;;;;;5.36;71.66;95644.88;5071633;28;20202;-73
2022/03/28 03:11:57;;;;;;;21.83;9.88;;;;;;;5.39;71.28;95638.97;5084965;28;20608;-74
2022/03/28 03:14:24;;;;;;;19.33;9.85;;;;;;;5.38;71.41;95632.00;5081027;28;20202;-74
2022/03/28 03:16:51;;;;;;;25.02;8.55;;;;;;;5.51;71.71;95647.56;5078488;28;20226;-74
2022/03/28 03:19:18;;;;;;;15.73;8.20;;;;;;;5.53;72.16;95645.41;5083932;28;20221;-74
2022/03/28 03:21:47;;;;;;;17.48;8.43;;;;;;;5.62;70.43;95643.78;5083891;28;20206;-74
2022/03/28 03:24:14;;;;;;;15.88;9.13;;;;;;;5.55;70.64;95643.28;5071704;28;20229;-74
2022/03/28 03:26:40;;;;;;;16.98;8.30;;;;;;;5.56;70.66;95649.44;5069460;28;20730;-73
2022/03/28 03:29:07;;;;;;;15.25;7.80;;;;;;;5.58;70.46;95641.94;5070889;28;20202;-74
2022/03/28 03:31:34;;;;;;;18.30;7.93;;;;;;;5.56;71.18;95652.94;5088968;28;20239;-74
2022/03/28 03:34:01;;;;;;;37.63;17.63;;;;;;;5.49;70.70;95641.66;5071860;28;20252;-74
2022/03/28 03:36:28;;;;;;;24.20;10.70;;;;;;;5.45;70.94;95659.41;5085503;28;20222;-73
2022/03/28 03:38:57;;;;;;;17.98;9.77;;;;;;;5.31;70.37;95652.97;5081995;28;20207;-74
2022/03/28 03:41:23;;;;;;;24.98;10.38;;;;;;;5.29;71.07;95649.75;5088460;28;20199;-72
2022/03/28 03:43:50;;;;;;;20.58;8.88;;;;;;;5.33;70.37;95656.16;5082279;28;20206;-74
2022/03/28 03:46:18;;;;;;;16.27;8.95;;;;;;;5.28;70.89;95648.13;5078465;28;20274;-73
2022/03/28 03:48:44;;;;;;;27.75;12.45;;;;;;;5.24;70.99;95650.53;5081382;28;20242;-74
2022/03/28 03:51:11;;;;;;;21.60;10.77;;;;;;;5.16;71.51;95647.59;5084918;28;20242;-73
2022/03/28 03:53:38;;;;;;;21.42;9.68;;;;;;;5.11;70.89;95658.31;5082387;28;20256;-73
2022/03/28 03:56:06;;;;;;;24.95;9.38;;;;;;;5.13;71.67;95661.53;5077980;28;20206;-75
2022/03/28 03:58:33;;;;;;;17.67;8.57;;;;;;;5.16;72.28;95650.28;5080376;28;20210;-78
2022/03/28 04:01:00;;;;;;;17.90;7.82;;;;;;;5.17;72.09;95659.94;5084707;28;20230;-74
2022/03/28 04:03:27;;;;;;;25.85;9.30;;;;;;;5.24;72.07;95660.47;5082615;28;20206;-76
2022/03/28 04:05:54;;;;;;;63.13;30.38;;;;;;;5.23;71.18;95661.53;5078047;28;20195;-74
2022/03/28 04:08:21;;;;;;;50.88;25.10;;;;;;;5.18;71.65;95661.56;5080240;28;20206;-74
2022/03/28 04:10:48;;;;;;;42.80;22.45;;;;;;;5.21;72.22;95666.38;5057246;28;20230;-74
2022/03/28 04:13:16;;;;;;;46.78;21.98;;;;;;;5.17;71.98;95662.63;5059053;28;20725;-74
2022/03/28 04:15:43;;;;;;;37.15;18.48;;;;;;;5.18;72.69;95664.25;5084152;28;20295;-74
2022/03/28 04:18:10;;;;;;;33.20;13.55;;;;;;;5.25;71.62;95664.78;5084359;28;20229;-74
2022/03/28 04:20:37;;;;;;;17.27;8.35;;;;;;;5.00;71.56;95668.25;5077906;28;20210;-74
2022/03/28 04:23:04;;;;;;;25.02;8.25;;;;;;;5.06;71.13;95666.38;5077468;28;20199;-74
2022/03/28 04:25:31;;;;;;;18.50;8.65;;;;;;;5.12;71.90;95670.66;5077523;28;20251;-74
2022/03/28 04:27:58;;;;;;;19.98;8.48;;;;;;;5.21;71.56;95669.06;5077770;28;20203;-73
2022/03/28 04:30:27;;;;;;;16.55;8.38;;;;;;;5.69;71.21;95670.41;5083463;28;20215;-73
2022/03/28 04:32:54;;;;;;;20.38;8.45;;;;;;;6.53;69.07;95663.47;5084585;28;20218;-73
2022/03/28 04:35:21;;;;;;;20.42;8.55;;;;;;;7.40;66.16;95667.22;5078142;28;20202;-74
2022/03/28 04:37:48;;;;;;;15.73;7.40;;;;;;;8.23;61.61;95652.66;5077481;28;20340;-73
2022/03/28 04:40:18;;;;;;;11.65;6.65;;;;;;;8.60;60.47;95642.00;5083230;28;20566;-73
2022/03/28 04:42:45;;;;;;;19.50;7.35;;;;;;;9.20;59.39;95645.75;5084031;28;20688;-74
2022/03/28 04:45:13;;;;;;;17.48;7.90;;;;;;;10.17;55.92;95644.91;5079265;28;20664;-73
2022/03/28 04:47:41;;;;;;;17.88;7.53;;;;;;;10.67;53.76;95629.56;5077273;28;20219;-74
2022/03/28 04:50:09;;;;;;;23.13;7.88;;;;;;;11.62;52.12;95629.56;5082433;28;20239;-74
2022/03/28 04:52:36;;;;;;;17.02;7.60;;;;;;;12.43;50.04;95624.78;5084336;28;20230;-74
2022/03/28 04:55:04;;;;;;;28.63;7.20;;;;;;;13.00;47.95;95616.56;5079938;28;20202;-75
2022/03/28 04:57:31;;;;;;;18.25;7.10;;;;;;;13.51;47.01;95600.28;5076733;28;20210;-75
2022/03/28 04:59:58;;;;;;;19.58;7.93;;;;;;;13.76;46.07;95617.72;5081330;28;20218;-74
2022/03/28 05:02:25;;;;;;;17.20;7.55;;;;;;;14.16;44.79;95610.06;5084402;28;20230;-75
2022/03/28 05:04:53;;;;;;;16.00;8.40;;;;;;;13.80;44.36;95606.97;5080641;28;20211;-75
2022/03/28 05:07:24;;;;;;;30.60;14.43;;;;;;;10.98;50.63;95637.84;5077206;28;20228;-74
2022/03/28 05:09:51;;;;;;;21.35;10.90;;;;;;;10.49;52.18;95641.34;5079664;28;20282;-76
2022/03/28 05:12:18;;;;;;;24.10;11.25;;;;;;;10.19;52.69;95645.44;5083895;28;20307;-77
2022/03/28 05:14:45;;;;;;;18.75;10.02;;;;;;;10.52;52.28;95638.00;5081821;28;20211;-74
2022/03/28 05:17:11;;;;;;;25.20;9.73;;;;;;;10.54;51.90;95629.59;5077096;28;20205;-74
2022/03/28 05:19:38;;;;;;;27.92;15.00;;;;;;;10.41;51.85;95647.44;5079264;28;20210;-74
2022/03/28 05:22:07;;;;;;;34.33;13.40;;;;;;;10.26;51.83;95645.03;5083531;28;20203;-74
2022/03/28 05:24:33;;;;;;;26.77;13.50;;;;;;;11.03;50.27;95639.66;5070754;28;20206;-75
2022/03/28 05:27:00;;;;;;;34.63;14.27;;;;;;;10.94;49.59;95638.75;5056784;28;20207;-74
2022/03/28 05:29:27;;;;;;;35.60;14.07;;;;;;;11.86;47.53;95649.09;5082365;28;20271;-75
2022/03/28 05:31:54;;;;;;;34.30;14.07;;;;;;;12.49;45.59;95639.81;5070484;28;20288;-76
2022/03/28 05:34:21;;;;;;;23.25;12.70;;;;;;;13.24;43.84;95637.91;5074194;28;20202;-76
2022/03/28 05:36:48;;;;;;;26.80;12.73;;;;;;;14.48;41.63;95627.78;5050301;28;20578;-76
2022/03/28 05:39:16;;;;;;;42.85;17.88;;;;;;;14.14;41.90;95623.22;5075147;28;20256;-74
2022/03/28 05:41:44;;;;;;;36.30;14.70;;;;;;;15.39;39.53;95626.25;5072115;28;20203;-75
2022/03/28 05:44:11;;;;;;;28.27;13.05;;;;;;;16.61;37.47;95624.69;5078668;28;20211;-75
2022/03/28 05:46:38;;;;;;;24.77;11.50;;;;;;;16.71;37.16;95623.47;5087302;28;20728;-75
2022/03/28 05:49:05;;;;;;;22.77;11.48;;;;;;;16.91;37.04;95616.28;5074058;28;20619;-74
2022/03/28 05:51:32;;;;;;;21.48;9.15;;;;;;;16.00;38.55;95624.59;5086807;28;20235;-74
2022/03/28 05:53:59;;;;;;;20.92;9.23;;;;;;;17.21;36.57;95608.59;5087369;28;20511;-75
2022/03/28 05:56:27;;;;;;;21.58;11.10;;;;;;;16.34;37.54;95634.34;5080216;28;20581;-75
2022/03/28 05:58:54;;;;;;;21.45;10.45;;;;;;;15.36;38.58;95646.03;5080398;28;20226;-79
2022/03/28 06:01:21;;;;;;;21.75;10.82;;;;;;;14.41;40.78;95632.13;5086530;28;20199;-79
2022/03/28 06:03:48;;;;;;;24.48;10.65;;;;;;;14.99;40.40;95630.56;5072850;28;20206;-75
2022/03/28 06:06:15;;;;;;;20.52;10.82;;;;;;;16.51;38.44;95618.88;5071709;28;20210;-74
2022/03/28 06:08:42;;;;;;;26.33;11.57;;;;;;;17.73;35.93;95612.13;5074212;28;20187;-74
2022/03/28 06:11:09;;;;;;;22.73;12.02;;;;;;;17.04;36.59;95632.34;5081004;28;20226;-76
2022/03/28 06:13:37;;;;;;;18.42;11.10;;;;;;;17.77;35.08;95617.69;5076752;28;20273;-76
2022/03/28 06:16:05;;;;;;;18.70;10.55;;;;;;;17.32;35.88;95615.19;5077273;28;20215;-75
2022/03/28 06:18:32;;;;;;;20.27;11.80;;;;;;;18.26;34.61;95610.03;5080591;28;20199;-75
2022/03/28 06:20:59;;;;;;;20.70;11.18;;;;;;;18.56;34.49;95607.66;5082451;28;20198;-75
2022/03/28 06:23:26;;;;;;;19.63;10.35;;;;;;;16.52;36.94;95625.94;5091408;28;20195;-78
2022/03/28 06:25:53;;;;;;;22.10;10.45;;;;;;;15.78;38.43;95640.56;5084246;28;20206;-75
2022/03/28 06:28:20;;;;;;;22.15;11.07;;;;;;;15.77;39.13;95644.44;5086536;28;20257;-74
2022/03/28 06:30:48;;;;;;;18.75;9.77;;;;;;;16.77;37.70;95626.78;5082169;28;20247;-75
2022/03/28 06:33:16;;;;;;;22.92;11.68;;;;;;;17.04;36.92;95624.16;5080120;28;20202;-74
2022/03/28 06:35:43;;;;;;;24.02;11.18;;;;;;;17.27;36.26;95618.16;5093681;28;20263;-76
2022/03/28 06:38:10;;;;;;;22.23;11.38;;;;;;;17.04;36.72;95626.88;5075578;28;20629;-80
2022/03/28 06:40:37;;;;;;;15.32;10.23;;;;;;;17.16;36.72;95617.06;5083727;28;20205;-74
2022/03/28 06:43:05;;;;;;;22.05;11.77;;;;;;;16.21;37.65;95638.19;5078514;28;20202;-79
2022/03/28 06:45:33;;;;;;;20.38;11.65;;;;;;;15.43;39.85;95646.31;5082076;28;20222;-78
2022/03/28 06:48:01;;;;;;;22.23;12.02;;;;;;;15.33;40.25;95638.50;5086166;28;20669;-75
2022/03/28 06:50:29;;;;;;;23.25;11.90;;;;;;;15.78;39.24;95640.56;5083729;28;20234;-77
2022/03/28 06:52:56;;;;;;;20.08;11.27;;;;;;;16.33;38.20;95640.16;5079164;28;20961;-79
2022/03/28 06:55:23;;;;;;;21.10;12.23;;;;;;;15.84;39.38;95636.50;5079942;28;20206;-76
2022/03/28 06:57:51;;;;;;;17.73;11.27;;;;;;;16.78;37.56;95611.97;5086523;28;20222;-77
2022/03/28 07:00:19;;;;;;;22.52;12.55;;;;;;;15.79;39.28;95631.25;5084599;28;20207;-75
2022/03/28 07:02:47;;;;;;;24.55;12.07;;;;;;;16.39;38.13;95627.06;5078818;28;20657;-75
2022/03/28 07:05:15;;;;;;;22.67;11.90;;;;;;;16.81;37.70;95625.75;5079699;28;20662;-75
2022/03/28 07:07:44;;;;;;;24.10;11.65;;;;;;;17.38;36.55;95619.28;5085761;28;20207;-76
2022/03/28 07:10:11;;;;;;;25.25;11.85;;;;;;;16.81;37.28;95622.22;5072261;28;20246;-76
2022/03/28 07:12:38;;;;;;;21.25;11.93;;;;;;;17.12;37.46;95625.16;5079442;28;20325;-77
2022/03/28 07:15:06;;;;;;;21.00;12.07;;;;;;;16.60;37.84;95633.25;5078101;28;20232;-78
2022/03/28 07:17:45;;;;;;;18.90;11.60;;;;;;;16.33;38.85;95630.03;5079992;28;20217;-78
2022/03/28 07:20:12;;;;;;;22.60;11.90;;;;;;;15.69;39.67;95643.38;5079027;28;20190;-76
2022/03/28 07:22:41;;;;;;;19.73;12.23;;;;;;;15.62;40.09;95641.19;5082255;28;20199;-75
2022/03/28 07:25:09;;;;;;;20.00;11.60;;;;;;;15.59;40.31;95641.03;5075654;28;20202;-77
2022/03/28 07:27:39;;;;;;;25.45;12.57;;;;;;;16.38;39.02;95630.94;5081679;28;20218;-75
2022/03/28 07:30:07;;;;;;;19.38;10.60;;;;;;;16.25;39.40;95643.81;5085760;28;20369;-74
2022/03/28 07:32:34;;;;;;;20.70;11.38;;;;;;;15.67;40.17;95642.13;5083503;28;20325;-74
2022/03/28 07:35:01;;;;;;;26.88;12.80;;;;;;;15.25;41.17;95639.38;5079078;28;20201;-77
2022/03/28 07:37:29;;;;;;;18.20;11.70;;;;;;;14.78;42.46;95636.75;5080436;28;20280;-76
2022/03/28 07:39:57;;;;;;;19.80;11.55;;;;;;;15.12;41.84;95640.41;5085793;28;20207;-75
2022/03/28 07:42:24;;;;;;;19.70;11.85;;;;;;;14.65;42.46;95648.69;5083104;28;20213;-76
2022/03/28 07:44:55;;;;;;;25.02;13.00;;;;;;;14.59;42.53;95644.56;5077631;28;20198;-77
2022/03/28 07:47:25;;;;;;;19.30;12.02;;;;;;;14.62;42.65;95643.13;5078650;28;20191;-73
2022/03/28 07:49:52;;;;;;;27.27;13.35;;;;;;;14.61;42.74;95641.53;5064361;28;20291;-75
2022/03/28 07:52:19;;;;;;;24.00;13.90;;;;;;;15.20;41.49;95636.81;5077894;28;20226;-76
2022/03/28 07:54:47;;;;;;;21.15;12.80;;;;;;;14.94;41.91;95634.25;5078818;28;20198;-76
2022/03/28 07:57:16;;;;;;;20.70;12.50;;;;;;;15.05;41.93;95626.47;5077996;28;20223;-76
2022/03/28 07:59:44;;;;;;;24.50;13.70;;;;;;;14.78;42.20;95636.75;5083479;28;20551;-76
2022/03/28 08:02:11;;;;;;;26.60;13.65;;;;;;;14.69;42.93;95625.09;5085027;28;20210;-74
2022/03/28 08:04:38;;;;;;;22.65;12.93;;;;;;;14.73;42.89;95623.31;5079400;28;20198;-75
2022/03/28 08:07:08;;;;;;;24.92;13.23;;;;;;;14.66;43.09;95628.47;5077761;28;20684;-78
2022/03/28 08:09:35;;;;;;;26.27;12.52;;;;;;;14.73;42.94;95625.25;5082927;28;20222;-78
2022/03/28 08:12:02;;;;;;;18.52;12.77;;;;;;;14.60;43.00;95626.28;5084524;28;20230;-75
2022/03/28 08:14:31;;;;;;;22.98;12.23;;;;;;;14.28;43.71;95617.56;5080422;28;20222;-75
2022/03/28 08:16:58;;;;;;;23.85;13.00;;;;;;;14.55;43.29;95622.59;5078100;28;20259;-75
2022/03/28 08:19:26;;;;;;;20.33;11.18;;;;;;;14.92;42.59;95607.31;5081442;28;20203;-72
2022/03/28 08:21:53;;;;;;;21.75;10.93;;;;;;;14.84;42.64;95613.63;5085009;28;20635;-75
2022/03/28 08:24:21;;;;;;;21.27;12.48;;;;;;;15.17;42.43;95604.75;5070834;28;20223;-75
2022/03/28 08:26:49;;;;;;;23.77;11.60;;;;;;;15.21;42.35;95592.03;5084633;28;20234;-76
2022/03/28 08:29:16;;;;;;;19.42;10.93;;;;;;;15.18;42.50;95600.88;5070987;28;20215;-75
2022/03/28 08:31:44;;;;;;;17.55;10.63;;;;;;;15.80;41.37;95597.31;5084306;28;20223;-75
2022/03/28 08:34:11;;;;;;;18.52;11.73;;;;;;;15.80;40.91;95591.84;5081447;28;20202;-74
2022/03/28 08:36:38;;;;;;;19.60;11.05;;;;;;;16.03;40.37;95590.31;5072489;28;20211;-74
2022/03/28 08:39:06;;;;;;;22.20;11.52;;;;;;;16.13;40.13;95576.19;5082564;28;20280;-76
2022/03/28 08:41:34;;;;;;;19.10;11.55;;;;;;;15.92;40.84;95576.28;5076970;28;20252;-77
2022/03/28 08:44:02;;;;;;;17.67;10.55;;;;;;;15.89;41.20;95582.41;5077306;28;20209;-74
2022/03/28 08:46:30;;;;;;;19.10;11.25;;;;;;;16.33;40.17;95564.38;5064359;28;20318;-75
2022/03/28 08:49:00;;;;;;;17.67;10.93;;;;;;;15.86;40.46;95574.09;5076236;28;20305;-76
2022/03/28 08:51:28;;;;;;;20.77;11.35;;;;;;;15.08;42.33;95568.53;5076895;28;20705;-75
2022/03/28 08:53:55;;;;;;;19.67;10.98;;;;;;;15.04;42.65;95559.38;5077462;28;20230;-73
2022/03/28 08:56:22;;;;;;;19.92;11.75;;;;;;;14.83;43.08;95557.47;5064633;28;20225;-74
2022/03/28 08:58:49;;;;;;;20.85;12.32;;;;;;;15.22;42.75;95555.41;5077655;28;20209;-74
2022/03/28 09:01:17;;;;;;;18.88;10.70;;;;;;;15.43;42.03;95552.66;5083391;28;20199;-78
2022/03/28 09:03:47;;;;;;;20.60;11.90;;;;;;;14.83;43.09;95546.56;5084016;28;20575;-74
2022/03/28 09:06:36;;;;;;;21.25;10.80;;;;;;;15.50;41.84;95548.25;5078651;28;20288;-75
2022/03/28 09:09:18;;;;;;;18.88;11.00;;;;;;;15.96;40.97;95549.09;5072767;28;20219;-74
2022/03/28 09:11:47;;;;;;;22.05;11.40;;;;;;;15.95;41.12;95536.56;5084104;28;20248;-75
2022/03/28 09:14:24;;;;;;;21.00;12.82;;;;;;;15.07;42.65;95545.09;5057514;28;20226;-78
2022/03/28 09:17:06;;;;;;;21.52;12.48;;;;;;;14.82;43.44;95539.50;5084315;28;20233;-76
2022/03/28 09:19:48;;;;;;;18.88;11.82;;;;;;;14.81;43.63;95531.66;5083182;28;20202;-75
2022/03/28 09:22:19;;;;;;;30.17;12.15;;;;;;;15.19;42.98;95534.22;5080521;28;20273;-74
2022/03/28 09:24:46;;;;;;;21.98;12.57;;;;;;;15.01;42.94;95535.53;5091776;28;20194;-77
2022/03/28 09:27:15;;;;;;;21.20;11.77;;;;;;;15.29;43.43;95525.66;5080161;28;20218;-76
2022/03/28 09:30:00;;;;;;;19.35;11.65;;;;;;;16.07;41.15;95511.16;5080874;28;20207;-74
2022/03/28 09:32:29;;;;;;;18.27;11.55;;;;;;;16.88;39.68;95507.50;5084987;28;20272;-75
2022/03/28 09:35:20;;;;;;;22.92;12.00;;;;;;;16.97;39.13;95505.41;5088045;28;20210;-74
2022/03/28 09:37:58;;;;;;;20.15;12.15;;;;;;;16.61;39.44;95492.56;5087296;28;20194;-74
2022/03/28 09:40:27;;;;;;;20.50;12.35;;;;;;;17.35;38.57;95496.72;5070163;28;20190;-76
2022/03/28 09:42:56;;;;;;;20.65;11.43;;;;;;;18.09;37.37;95478.72;5080692;28;20208;-75
2022/03/28 09:45:24;;;;;;;21.15;11.65;;;;;;;17.58;37.80;95486.78;5085376;28;20306;-74
2022/03/28 09:47:56;;;;;;;21.08;11.98;;;;;;;17.63;37.79;95472.03;5087532;28;20205;-73
2022/03/28 09:50:28;;;;;;;23.10;12.95;;;;;;;17.27;38.31;95475.75;5083808;28;20238;-75
2022/03/28 09:52:57;;;;;;;17.45;11.98;;;;;;;17.77;38.00;95465.00;5080040;28;20215;-76
2022/03/28 09:55:24;;;;;;;26.13;11.85;;;;;;;18.35;37.27;95462.50;5083124;28;20209;-75
2022/03/28 09:57:50;;;;;;;23.67;12.15;;;;;;;18.24;36.61;95455.16;5087396;28;20385;-75
2022/03/28 10:00:19;;;;;;;18.83;13.05;;;;;;;18.37;36.87;95453.91;5085011;28;20679;-75
2022/03/28 10:02:49;;;;;;;20.02;11.38;;;;;;;18.98;35.91;95448.63;5070144;28;20693;-75
2022/03/28 10:05:17;;;;;;;21.70;11.98;;;;;;;19.04;35.51;95447.19;5065631;28;20199;-75
2022/03/28 10:07:49;;;;;;;25.75;12.38;;;;;;;18.97;35.19;95447.03;5086841;28;20231;-76
2022/03/28 10:10:17;;;;;;;24.77;13.25;;;;;;;18.14;36.80;95431.03;5074380;28;20195;-74
2022/03/28 10:12:44;;;;;;;24.13;11.93;;;;;;;18.09;37.00;95429.34;5085305;28;20230;-77
2022/03/28 10:15:13;;;;;;;20.55;12.25;;;;;;;18.11;36.52;95421.56;5086124;28;20199;-75
2022/03/28 10:17:41;;;;;;;19.17;12.52;;;;;;;17.78;37.27;95419.19;5082116;28;20229;-75
2022/03/28 10:20:09;;;;;;;21.70;12.43;;;;;;;18.05;36.97;95414.75;5079488;28;20238;-74
2022/03/28 10:22:41;;;;;;;20.70;12.10;;;;;;;17.77;37.38;95409.38;5084390;28;20553;-75
2022/03/28 10:25:11;;;;;;;22.60;13.00;;;;;;;17.49;37.68;95412.19;5076089;28;20316;-77
2022/03/28 10:27:40;;;;;;;23.67;12.60;;;;;;;17.63;37.72;95406.28;5082667;28;20245;-75
2022/03/28 10:30:12;;;;;;;21.67;11.75;;;;;;;17.35;37.96;95400.88;5086309;28;20697;-75
2022/03/28 10:32:39;;;;;;;19.85;12.43;;;;;;;17.38;38.23;95383.69;5084880;28;20226;-75
2022/03/28 10:35:07;;;;;;;22.83;12.75;;;;;;;17.78;38.55;95397.25;5074225;28;20195;-74
2022/03/28 10:37:36;;;;;;;21.35;11.75;;;;;;;17.90;38.08;95377.22;5060918;28;20208;-76
2022/03/28 10:40:21;;;;;;;23.15;12.50;;;;;;;18.18;36.73;95383.31;5079173;28;20199;-73
2022/03/28 10:42:52;;;;;;;23.50;11.80;;;;;;;18.04;36.57;95383.03;5079585;28;20209;-77
2022/03/28 10:45:21;;;;;;;19.88;12.98;;;;;;;18.04;36.77;95372.06;5082967;28;20261;-76
2022/03/28 10:47:51;;;;;;;22.50;12.93;;;;;;;18.13;36.45;95364.44;5086626;28;20662;-75
2022/03/28 10:50:20;;;;;;;21.25;12.65;;;;;;;18.27;36.06;95362.00;5083529;28;20226;-75
2022/03/28 10:53:07;;;;;;;21.10;13.43;;;;;;;18.56;35.58;95357.13;5075368;28;20825;-75
2022/03/28 10:55:37;;;;;;;22.17;11.57;;;;;;;18.63;36.51;95351.78;5085691;28;20600;-75
2022/03/28 10:58:16;;;;;;;20.90;12.60;;;;;;;18.99;35.32;95343.13;5065518;28;20206;-76
2022/03/28 11:01:21;;;;;;;20.77;12.45;;;;;;;19.02;35.16;95339.63;5054877;28;20540;-75
2022/03/28 11:03:52;;;;;;;20.80;11.52;;;;;;;19.31;35.05;95334.66;5086323;28;20206;-76
2022/03/28 11:06:40;;;;;;;19.13;11.15;;;;;;;19.06;35.08;95326.75;5080815;28;20218;-73
2022/03/28 11:09:08;;;;;;;23.73;10.77;;;;;;;19.11;35.16;95339.41;5074498;28;20596;-75
2022/03/28 11:11:34;;;;;;;17.42;11.30;;;;;;;19.15;35.17;95330.06;5071730;28;20289;-75
2022/03/28 11:14:04;;;;;;;19.00;10.75;;;;;;;19.61;34.61;95330.09;5063865;28;20245;-75
2022/03/28 11:16:42;;;;;;;21.98;11.40;;;;;;;19.40;34.77;95321.47;5079697;28;20662;-75
2022/03/28 11:19:29;;;;;;;23.48;10.77;;;;;;;19.62;34.01;95317.16;5079666;28;20205;-76
2022/03/28 11:21:58;;;;;;;19.33;11.55;;;;;;;19.87;34.36;95308.13;5078724;28;20321;-76
2022/03/28 11:24:52;;;;;;;23.25;11.23;;;;;;;20.31;33.41;95307.56;5090114;28;20194;-75
2022/03/28 11:27:20;;;;;;;20.52;10.77;;;;;;;19.26;34.67;95310.25;5066765;28;20222;-75
2022/03/28 11:29:49;;;;;;;17.83;9.68;;;;;;;18.75;35.22;95313.22;5078946;28;20231;-79
2022/03/28 11:32:18;;;;;;;20.88;10.70;;;;;;;18.29;35.52;95313.06;5083872;28;20195;-78